Time;durP1;ratioP1;P1;durP2;ratioP2;P2;SDS_P1;SDS_P2;PMS_P1;PMS_P2;Temp;Humidity;BMP_temperature;BMP_pressure;BME280_temperature;BME280_humidity;BME280_pressure;Samples;Min_cycle;Max_cycle;Signal;HPM_P1;HPM_P2
2022/05/09 00:02:04;;;;;;;6.50;3.08;;;;;;;11.20;72.44;100668.84;5092494;28;20035;-28
2022/05/09 00:04:30;;;;;;;5.38;2.97;;;;;;;11.18;72.78;100681.56;5092510;28;20467;-28
2022/05/09 00:06:55;;;;;;;7.13;3.20;;;;;;;11.09;72.76;100660.63;5110859;28;20095;-32
2022/05/09 00:09:21;;;;;;;5.53;2.78;;;;;;;10.97;73.23;100655.94;5110808;28;20027;-30
2022/05/09 00:11:47;;;;;;;6.90;2.78;;;;;;;10.93;73.12;100669.88;5092225;28;20043;-29
2022/05/09 00:14:13;;;;;;;6.38;3.05;;;;;;;10.88;73.90;100672.38;5110845;28;20058;-28
2022/05/09 00:16:39;;;;;;;7.45;3.30;;;;;;;10.79;73.93;100671.75;5075427;28;20114;-28
2022/05/09 00:19:07;;;;;;;6.75;3.75;;;;;;;10.83;73.81;100673.81;5092349;28;20122;-33
2022/05/09 00:21:34;;;;;;;;;;;;;;;10.73;73.80;100680.59;5092414;28;20027;-29
2022/05/09 00:24:00;;;;;;;10.05;3.60;;;;;;;10.39;75.19;100659.19;5092216;28;20027;-31
2022/05/09 00:26:31;;;;;;;6.65;3.80;;;;;;;10.45;75.90;100676.22;5092304;28;20040;-30
2022/05/09 00:29:00;;;;;;;9.48;4.00;;;;;;;10.52;75.72;100681.56;5110540;28;20027;-28
2022/05/09 00:31:26;;;;;;;7.57;3.78;;;;;;;10.30;76.04;100655.09;5092152;28;20169;-29
2022/05/09 00:33:52;;;;;;;6.85;3.58;;;;;;;10.42;76.62;100681.94;5110691;28;20039;-29
2022/05/09 00:36:17;;;;;;;9.05;4.05;;;;;;;10.25;76.80;100665.50;5110583;28;20024;-31
2022/05/09 00:38:46;;;;;;;9.52;3.50;;;;;;;10.27;77.40;100684.78;5110110;28;20522;-30
2022/05/09 00:44:01;;;;;;;8.55;3.95;;;;;;;10.40;77.14;100687.50;5110585;28;20070;-28
2022/05/09 00:46:30;;;;;;;6.32;3.72;;;;;;;10.11;76.88;100647.81;5092006;28;20027;-31
2022/05/09 00:49:02;;;;;;;9.45;3.70;;;;;;;10.05;77.81;100671.59;5091414;28;20035;-30
2022/05/09 00:51:29;;;;;;;8.00;3.70;;;;;;;10.00;78.07;100662.56;5091891;28;20059;-30
2022/05/09 00:53:57;;;;;;;13.15;4.18;;;;;;;10.14;78.19;100682.91;5091663;28;20035;-32
2022/05/09 00:56:27;;;;;;;7.35;3.63;;;;;;;10.25;77.99;100684.16;5091831;28;20035;-29
2022/05/09 00:59:01;;;;;;;7.03;3.88;;;;;;;10.20;77.33;100668.78;5091498;28;20024;-29
2022/05/09 01:01:27;;;;;;;8.50;4.05;;;;;;;10.30;77.68;100678.25;5091399;28;20024;-30
2022/05/09 01:04:08;;;;;;;8.43;4.28;;;;;;;10.37;77.41;100687.91;5090994;28;20047;-29
2022/05/09 01:06:34;;;;;;;6.38;3.42;;;;;;;10.37;76.62;100679.91;5091713;28;20047;-33
2022/05/09 01:08:59;;;;;;;9.43;3.90;;;;;;;10.17;78.35;100668.34;5109883;28;20444;-28
2022/05/09 01:11:28;;;;;;;7.88;3.78;;;;;;;10.33;77.76;100676.00;5109822;28;20503;-33
2022/05/09 01:13:57;;;;;;;;;;;;;;;10.29;77.80;100679.25;5091306;28;20057;-29
2022/05/09 01:16:24;;;;;;;8.07;3.80;;;;;;;10.45;76.15;100661.03;5091466;28;20021;-29
2022/05/09 01:18:49;;;;;;;7.40;3.90;;;;;;;10.47;76.22;100676.03;5109737;28;20098;-29
2022/05/09 01:21:33;;;;;;;9.88;3.92;;;;;;;10.25;76.46;100686.81;5109629;28;20063;-29
2022/05/09 01:24:00;;;;;;;8.90;4.85;;;;;;;10.13;76.91;100677.75;5091269;28;20027;-29
2022/05/09 01:26:25;;;;;;;12.98;6.40;;;;;;;9.94;77.47;100674.84;5091062;28;20101;-28
2022/05/09 01:28:51;;;;;;;13.25;5.82;;;;;;;9.90;78.37;100673.59;5109667;28;20032;-29
2022/05/09 01:31:18;;;;;;;10.80;5.43;;;;;;;10.00;77.60;100667.91;5109399;28;20028;-33
2022/05/09 01:33:49;;;;;;;10.87;5.63;;;;;;;9.81;78.45;100669.47;5090783;28;20043;-28
2022/05/09 01:36:17;;;;;;;11.80;5.82;;;;;;;9.63;79.11;100665.50;5090938;28;20280;-29
2022/05/09 01:38:51;;;;;;;10.25;6.25;;;;;;;10.21;76.59;100680.25;5108904;28;20099;-28
2022/05/09 01:41:17;;;;;;;8.88;6.22;;;;;;;10.13;77.01;100672.44;5090965;28;20066;-31
2022/05/09 01:43:46;;;;;;;8.52;5.55;;;;;;;10.07;77.23;100676.72;5108824;28;20059;-28
2022/05/09 01:46:16;;;;;;;9.57;5.40;;;;;;;10.12;77.44;100682.28;5109132;28;20034;-31
2022/05/09 01:51:26;;;;;;;10.73;5.28;;;;;;;9.93;78.40;100670.53;5108954;28;20100;-34
2022/05/09 01:53:52;;;;;;;9.80;4.93;;;;;;;9.64;79.20;100669.81;5108951;28;20036;-33
2022/05/09 01:56:30;;;;;;;11.50;4.80;;;;;;;9.69;79.37;100676.38;5090414;28;20034;-31
2022/05/09 01:58:56;;;;;;;8.52;4.75;;;;;;;9.64;78.92;100659.16;5109151;28;20032;-29
2022/05/09 02:01:25;;;;;;;9.93;4.78;;;;;;;9.68;78.84;100658.75;5108533;28;20519;-31
2022/05/09 02:03:52;;;;;;;9.75;5.05;;;;;;;9.71;79.46;100674.34;5108342;28;20139;-30
2022/05/09 02:06:18;;;;;;;8.82;5.00;;;;;;;9.98;77.91;100669.94;5090305;28;20106;-32
2022/05/09 02:08:44;;;;;;;10.77;4.97;;;;;;;9.89;77.91;100671.13;5090322;28;20171;-28
2022/05/09 02:11:10;;;;;;;10.25;4.88;;;;;;;9.65;78.78;100670.63;5089937;28;20380;-30
2022/05/09 02:13:36;;;;;;;8.23;4.75;;;;;;;9.36;79.21;100658.41;5090248;28;20034;-29
2022/05/09 02:16:01;;;;;;;11.75;6.50;;;;;;;9.57;78.96;100670.78;5107803;28;20100;-29
2022/05/09 02:18:27;;;;;;;10.05;5.38;;;;;;;9.51;78.22;100663.59;5108114;28;20032;-29
2022/05/09 02:20:52;;;;;;;10.18;5.38;;;;;;;9.54;78.29;100682.66;5108410;28;20032;-30
2022/05/09 02:23:18;;;;;;;10.40;5.30;;;;;;;9.71;76.84;100664.50;5108682;28;20085;-28
2022/05/09 02:25:45;;;;;;;14.85;5.28;;;;;;;9.55;77.18;100667.50;5089695;28;20027;-33
2022/05/09 02:28:13;;;;;;;13.25;5.13;;;;;;;10.10;75.35;100681.66;5108248;28;20035;-29
2022/05/09 02:30:39;;;;;;;11.67;5.63;;;;;;;9.91;75.62;100691.22;5089730;28;20028;-31
2022/05/09 02:33:06;;;;;;;10.73;6.10;;;;;;;9.53;77.03;100699.66;5107688;28;20027;-32
2022/05/09 02:35:32;;;;;;;12.05;5.32;;;;;;;9.79;76.93;100706.97;5089482;28;20126;-28
2022/05/09 02:37:57;;;;;;;15.02;6.45;;;;;;;9.86;76.02;100693.66;5089594;28;20032;-29
2022/05/09 02:40:26;;;;;;;11.73;6.13;;;;;;;10.05;74.98;100682.28;5089555;28;20028;-28
2022/05/09 02:42:52;;;;;;;;;;;;;;;10.21;74.66;100693.56;5090202;28;20039;-31
2022/05/09 02:45:18;;;;;;;14.07;6.10;;;;;;;10.17;75.49;100695.81;5089315;28;20515;-31
2022/05/09 02:47:43;;;;;;;10.45;6.28;;;;;;;10.44;74.66;100696.75;5089437;28;20035;-32
2022/05/09 02:50:10;;;;;;;9.65;5.90;;;;;;;10.23;75.37;100694.19;5107798;28;20031;-29
2022/05/09 02:52:39;;;;;;;10.68;6.00;;;;;;;10.35;74.48;100692.63;5089336;28;20087;-29
2022/05/09 02:55:06;;;;;;;9.25;4.93;;;;;;;10.23;74.75;100699.53;5089234;28;20027;-34
2022/05/09 02:57:32;;;;;;;12.70;5.93;;;;;;;9.83;76.75;100707.38;5089139;28;20046;-28
2022/05/09 02:59:57;;;;;;;10.32;5.40;;;;;;;9.80;76.92;100689.13;5107518;28;20902;-29
2022/05/09 03:02:23;;;;;;;11.27;6.30;;;;;;;9.32;77.17;100700.56;5107995;28;20118;-29
2022/05/09 03:04:49;;;;;;;10.68;5.90;;;;;;;9.23;78.24;100699.03;5089198;28;20038;-31
2022/05/09 03:07:17;;;;;;;11.57;6.20;;;;;;;9.62;76.67;100714.47;5089033;28;20024;-30
2022/05/09 03:09:45;;;;;;;15.60;5.88;;;;;;;9.35;77.80;100715.31;5089011;28;20502;-30
2022/05/09 03:12:11;;;;;;;10.40;5.80;;;;;;;9.45;78.12;100721.09;5107742;28;20089;-31
2022/05/09 03:14:38;;;;;;;12.43;5.88;;;;;;;9.99;75.33;100717.72;5088867;28;20028;-30
2022/05/09 03:17:04;;;;;;;10.35;5.88;;;;;;;10.30;74.10;100721.75;5089071;28;20024;-32
2022/05/09 03:19:30;;;;;;;15.35;5.93;;;;;;;9.85;75.09;100713.34;5089036;28;20038;-31
2022/05/09 03:21:56;;;;;;;14.05;6.82;;;;;;;9.99;74.37;100717.72;5089019;28;20406;-31
2022/05/09 03:24:22;;;;;;;11.60;5.07;;;;;;;9.65;75.75;100715.91;5107238;28;20035;-30
2022/05/09 03:26:49;;;;;;;9.80;5.88;;;;;;;9.30;77.30;100709.75;5088777;28;20026;-31
2022/05/09 03:29:15;;;;;;;10.18;5.40;;;;;;;9.06;77.77;100711.81;5088630;28;20595;-29
2022/05/09 03:31:41;;;;;;;19.35;6.30;;;;;;;9.34;77.30;100733.13;5088645;28;20119;-30
2022/05/09 03:34:06;;;;;;;12.85;6.05;;;;;;;9.42;78.09;100729.50;5107262;28;20161;-32
2022/05/09 03:36:33;;;;;;;13.48;6.05;;;;;;;9.43;78.15;100736.44;5107240;28;20059;-28
2022/05/09 03:38:59;;;;;;;13.38;7.05;;;;;;;9.25;78.81;100734.28;5088552;28;20063;-31
2022/05/09 03:41:24;;;;;;;13.43;5.88;;;;;;;9.37;78.90;100740.69;5088817;28;20027;-28
2022/05/09 03:43:50;;;;;;;17.30;6.80;;;;;;;9.56;77.47;100731.22;5106658;28;20038;-30
2022/05/09 03:46:16;;;;;;;17.95;7.47;;;;;;;9.92;75.38;100727.50;5107415;28;20024;-29
2022/05/09 03:48:42;;;;;;;15.90;6.53;;;;;;;9.47;76.72;100719.06;5088776;28;20047;-30
2022/05/09 03:51:07;;;;;;;19.25;6.65;;;;;;;9.80;76.35;100740.56;5107230;28;20475;-31
2022/05/09 03:53:33;;;;;;;18.27;6.35;;;;;;;9.75;77.15;100736.84;5106825;28;20114;-28
2022/05/09 03:56:00;;;;;;;15.23;6.65;;;;;;;9.74;77.80;100744.00;5088256;28;20039;-30
2022/05/09 03:58:25;;;;;;;13.65;6.88;;;;;;;9.79;77.90;100735.44;5106774;28;20505;-30
2022/05/09 04:00:51;;;;;;;16.38;6.78;;;;;;;9.47;79.43;100743.03;5107084;28;20031;-29
2022/05/09 04:03:18;;;;;;;15.10;6.72;;;;;;;9.53;80.09;100747.56;5088679;28;20031;-30
2022/05/09 04:05:43;;;;;;;14.45;7.38;;;;;;;9.49;79.55;100738.34;5088249;28;20035;-30
2022/05/09 04:08:12;;;;;;;13.43;6.95;;;;;;;9.43;79.53;100731.13;5107038;28;20092;-29
2022/05/09 04:10:40;;;;;;;11.38;6.85;;;;;;;9.40;79.58;100723.53;5088101;28;20016;-28
2022/05/09 04:13:06;;;;;;;12.23;7.05;;;;;;;9.40;80.67;100747.50;5106622;28;20042;-31
2022/05/09 04:18:17;;;;;;;13.52;6.75;;;;;;;9.72;79.03;100737.22;5106828;28;20482;-31
2022/05/09 04:20:46;;;;;;;11.32;7.30;;;;;;;9.92;78.33;100750.66;5106714;28;20047;-29
2022/05/09 04:23:12;;;;;;;11.15;6.53;;;;;;;9.72;79.16;100739.91;5088259;28;20059;-30
2022/05/09 04:25:38;;;;;;;10.20;6.38;;;;;;;10.03;78.19;100758.94;5088125;28;20031;-29
2022/05/09 04:28:06;;;;;;;16.38;7.78;;;;;;;10.03;78.72;100748.25;5088461;28;20126;-31
2022/05/09 04:30:34;;;;;;;13.75;7.50;;;;;;;10.06;78.48;100745.19;5088382;28;20479;-30
2022/05/09 04:33:01;;;;;;;12.57;7.32;;;;;;;10.04;80.07;100749.06;5088111;28;20498;-30
2022/05/09 04:35:28;;;;;;;13.90;7.93;;;;;;;10.38;78.76;100736.72;5088001;28;20031;-32
2022/05/09 04:37:54;;;;;;;18.45;7.15;;;;;;;10.49;78.95;100746.81;5088166;28;20552;-30
2022/05/09 04:40:32;;;;;;;14.77;6.82;;;;;;;10.92;75.98;100756.31;5110424;28;20035;-31
2022/05/09 04:42:59;;;;;;;15.52;7.38;;;;;;;10.89;76.08;100757.56;5091913;28;20506;-28
2022/05/09 04:45:26;;;;;;;12.83;7.53;;;;;;;10.67;76.96;100743.56;5092056;28;20030;-29
2022/05/09 04:47:52;;;;;;;14.20;8.00;;;;;;;10.82;77.58;100760.19;5091416;28;20084;-33
2022/05/09 04:50:22;;;;;;;16.80;8.20;;;;;;;10.92;76.95;100750.97;5110154;28;20031;-33
2022/05/09 04:52:47;;;;;;;12.70;7.65;;;;;;;11.16;76.18;100752.22;5091321;28;20032;-29
2022/05/09 04:55:14;;;;;;;13.20;7.40;;;;;;;11.19;77.26;100755.28;5110089;28;20778;-29
2022/05/09 04:57:40;;;;;;;13.10;8.00;;;;;;;11.31;76.48;100760.00;5091330;28;20031;-33
2022/05/09 05:00:12;;;;;;;11.70;7.28;;;;;;;11.64;75.26;100760.78;5091288;28;20557;-33
2022/05/09 05:02:37;;;;;;;14.82;8.45;;;;;;;11.76;75.00;100758.28;5084853;28;20034;-29
2022/05/09 05:05:07;;;;;;;12.93;7.47;;;;;;;11.52;75.33;100748.28;5109555;28;20036;-28
2022/05/09 05:07:32;;;;;;;11.65;7.50;;;;;;;11.48;76.54;100742.50;5091125;28;20039;-31
2022/05/09 05:09:58;;;;;;;23.10;9.00;;;;;;;11.53;76.88;100756.09;5109506;28;20024;-34
2022/05/09 05:12:24;;;;;;;15.00;8.30;;;;;;;11.85;76.09;100766.91;5109587;28;20439;-28
2022/05/09 05:14:49;;;;;;;12.82;7.20;;;;;;;11.93;73.88;100748.00;5109330;28;20020;-30
2022/05/09 05:17:15;;;;;;;11.25;7.15;;;;;;;11.85;75.68;100770.41;5109338;28;20037;-29
2022/05/09 05:19:42;;;;;;;16.80;8.80;;;;;;;12.02;73.40;100773.47;5090393;28;20114;-30
2022/05/09 05:22:09;;;;;;;15.55;8.60;;;;;;;12.34;72.02;100765.53;5091033;28;20111;-30
2022/05/09 05:24:36;;;;;;;13.57;6.57;;;;;;;12.71;71.82;100771.09;5091058;28;20038;-29
2022/05/09 05:27:03;;;;;;;14.77;7.50;;;;;;;12.54;71.83;100770.75;5090712;28;20710;-30
2022/05/09 05:29:28;;;;;;;16.50;9.25;;;;;;;12.65;72.00;100782.66;5109172;28;20023;-39
2022/05/09 05:31:54;;;;;;;18.15;10.13;;;;;;;12.33;71.82;100779.09;5109382;28;20028;-28
2022/05/09 05:34:19;;;;;;;15.18;9.32;;;;;;;12.62;70.86;100777.72;5109067;28;20020;-28
2022/05/09 05:36:45;;;;;;;17.13;8.98;;;;;;;12.90;70.43;100787.22;5107540;28;20042;-30
2022/05/09 05:39:15;;;;;;;16.77;9.05;;;;;;;12.88;70.29;100771.38;5090413;28;20059;-30
2022/05/09 05:41:42;;;;;;;16.05;9.27;;;;;;;12.89;69.53;100773.00;5073966;28;20388;-31
2022/05/09 05:44:11;;;;;;;19.30;8.70;;;;;;;12.83;70.05;100780.06;5108990;28;20039;-32
2022/05/09 05:46:39;;;;;;;15.30;8.57;;;;;;;12.89;69.71;100786.38;5090317;28;20031;-29
2022/05/09 05:49:04;;;;;;;14.65;8.05;;;;;;;13.09;69.74;100772.84;5108645;28;20059;-30
2022/05/09 05:51:30;;;;;;;17.17;9.38;;;;;;;13.25;68.70;100766.16;5108104;28;20058;-29
2022/05/09 05:53:58;;;;;;;13.68;8.48;;;;;;;13.33;68.33;100763.22;5108744;28;20038;-30
2022/05/09 05:56:26;;;;;;;17.65;8.75;;;;;;;13.49;66.53;100787.81;5108803;28;20467;-30
2022/05/09 05:58:52;;;;;;;14.98;7.50;;;;;;;13.36;66.29;100761.94;5090160;28;20070;-38
2022/05/09 06:01:18;;;;;;;15.18;7.18;;;;;;;13.63;64.33;100774.06;5108717;28;20071;-31
2022/05/09 06:03:44;;;;;;;14.13;7.13;;;;;;;13.52;65.52;100785.50;5108523;28;20028;-29
2022/05/09 06:06:10;;;;;;;10.18;5.95;;;;;;;13.62;64.09;100764.38;5107230;28;20039;-29
2022/05/09 06:08:38;;;;;;;10.30;6.20;;;;;;;13.91;63.87;100779.97;5108561;28;20027;-29
2022/05/09 06:11:13;;;;;;;12.43;5.47;;;;;;;14.06;62.40;100791.97;5106983;28;20489;-29
2022/05/09 06:13:40;;;;;;;11.57;5.40;;;;;;;14.04;62.35;100767.22;5108042;28;20127;-31
2022/05/09 06:16:06;;;;;;;25.95;14.88;;;;;;;14.13;62.78;100780.34;5090155;28;20110;-29
2022/05/09 06:18:31;;;;;;;10.23;6.38;;;;;;;14.04;62.82;100785.19;5108346;28;20114;-29
2022/05/09 06:20:57;;;;;;;12.90;5.35;;;;;;;13.94;62.20;100774.97;5108402;28;20039;-31
2022/05/09 06:23:23;;;;;;;10.45;5.10;;;;;;;14.15;62.11;100779.06;5108329;28;20039;-32
2022/05/09 06:25:48;;;;;;;9.23;4.35;;;;;;;14.05;60.69;100787.63;5107741;28;20933;-34
2022/05/09 06:28:15;;;;;;;12.00;4.63;;;;;;;14.27;60.09;100774.56;5089727;28;20115;-31
2022/05/09 06:30:42;;;;;;;7.28;4.13;;;;;;;14.35;60.61;100773.44;5089603;28;20093;-31
2022/05/09 06:33:08;;;;;;;8.00;4.15;;;;;;;14.23;62.10;100778.75;5089846;28;20494;-29
2022/05/09 06:35:40;;;;;;;5.93;3.30;;;;;;;14.36;58.97;100775.06;5089244;28;20043;-30
2022/05/09 06:38:06;;;;;;;5.82;3.33;;;;;;;14.53;57.46;100775.28;5089423;28;20171;-29
2022/05/09 06:40:35;;;;;;;7.35;3.35;;;;;;;14.77;56.42;100778.91;5089342;28;20479;-30
2022/05/09 06:43:03;;;;;;;7.22;3.50;;;;;;;14.82;58.73;100770.97;5107570;28;20034;-29
2022/05/09 06:45:29;;;;;;;8.38;4.40;;;;;;;15.17;56.94;100778.25;5106254;28;20023;-32
2022/05/09 06:47:56;;;;;;;8.82;4.53;;;;;;;14.97;57.41;100780.44;5089261;28;20073;-30
2022/05/09 06:50:24;;;;;;;9.02;3.85;;;;;;;15.17;57.95;100762.16;5089342;28;20085;-30
2022/05/09 06:52:49;;;;;;;10.88;4.30;;;;;;;15.41;56.50;100772.91;5107205;28;20043;-30
2022/05/09 06:55:15;;;;;;;19.70;11.85;;;;;;;14.99;56.83;100770.28;5107698;28;20027;-30
2022/05/09 06:57:43;;;;;;;8.85;3.45;;;;;;;15.36;57.46;100775.47;5107198;28;20059;-29
2022/05/09 07:00:15;;;;;;;9.90;3.90;;;;;;;15.43;56.58;100776.19;5089450;28;20425;-29
2022/05/09 07:02:41;;;;;;;9.27;5.70;;;;;;;15.61;56.83;100768.00;5107255;28;20035;-30
2022/05/09 07:05:09;;;;;;;10.10;4.97;;;;;;;15.30;56.35;100779.09;5107470;28;20502;-31
2022/05/09 07:07:36;;;;;;;9.63;5.63;;;;;;;15.65;56.67;100762.94;5088809;28;20032;-35
2022/05/09 07:10:02;;;;;;;10.70;5.22;;;;;;;15.78;55.23;100761.94;5089171;28;20047;-30
2022/05/09 07:12:28;;;;;;;10.25;5.82;;;;;;;15.52;55.50;100769.41;5088729;28;20497;-29
2022/05/09 07:14:53;;;;;;;7.75;3.90;;;;;;;15.80;54.62;100771.41;5107400;28;20023;-32
2022/05/09 07:17:18;;;;;;;16.60;4.80;;;;;;;15.82;55.66;100773.88;5107414;28;20038;-33
2022/05/09 07:19:44;;;;;;;8.95;4.53;;;;;;;15.97;55.49;100776.03;5106807;28;20031;-31
2022/05/09 07:22:10;;;;;;;7.05;4.07;;;;;;;16.18;54.30;100771.88;5107219;28;20822;-29
2022/05/09 07:24:36;;;;;;;8.15;3.35;;;;;;;16.36;55.21;100774.41;5105455;28;20414;-31
2022/05/09 07:27:02;;;;;;;21.05;4.90;;;;;;;16.43;55.79;100764.31;5072153;28;20065;-29
2022/05/09 07:29:27;;;;;;;7.05;4.03;;;;;;;16.30;53.92;100772.66;5105729;28;20538;-29
2022/05/09 07:31:53;;;;;;;9.38;3.80;;;;;;;16.59;53.62;100769.97;5105381;28;20032;-29
2022/05/09 07:34:18;;;;;;;7.55;3.42;;;;;;;16.52;53.27;100745.09;5105582;28;20031;-30
2022/05/09 07:36:44;;;;;;;8.20;5.10;;;;;;;16.61;51.69;100760.63;5107158;28;20072;-29
2022/05/09 07:39:09;;;;;;;9.38;4.07;;;;;;;16.56;53.70;100757.00;5084777;28;20048;-32
2022/05/09 07:41:35;;;;;;;9.15;4.20;;;;;;;16.81;50.83;100760.16;5086784;28;20028;-30
2022/05/09 07:44:00;;;;;;;8.68;3.90;;;;;;;16.63;53.71;100757.66;5087144;28;20031;-30
2022/05/09 07:46:26;;;;;;;5.80;3.60;;;;;;;16.85;51.70;100755.94;5086661;28;20111;-28
2022/05/09 07:48:52;;;;;;;7.35;3.90;;;;;;;16.59;51.29;100761.91;5086703;28;20461;-30
2022/05/09 07:51:19;;;;;;;7.47;4.03;;;;;;;16.81;53.21;100770.94;5086370;28;20034;-28
2022/05/09 07:53:44;;;;;;;8.07;4.13;;;;;;;16.95;53.02;100767.94;5102064;28;20040;-32
2022/05/09 07:56:10;;;;;;;137.38;13.48;;;;;;;17.03;53.09;100764.84;5085247;28;20039;-37
2022/05/09 07:58:35;;;;;;;10.30;5.50;;;;;;;16.93;52.26;100756.59;5086778;28;20033;-31
2022/05/09 08:01:02;;;;;;;9.32;4.47;;;;;;;17.30;52.58;100767.69;5086690;28;20116;-33
2022/05/09 08:03:31;;;;;;;7.10;4.82;;;;;;;17.07;50.51;100763.31;5085037;28;20113;-30
2022/05/09 08:05:59;;;;;;;8.90;4.70;;;;;;;17.20;51.22;100748.66;5086459;28;20024;-30
2022/05/09 08:08:28;;;;;;;20.02;15.95;;;;;;;17.40;50.46;100777.81;5086559;28;20040;-33
2022/05/09 08:10:55;;;;;;;7.80;4.07;;;;;;;17.58;50.46;100757.88;5085045;28;20036;-29
2022/05/09 08:13:21;;;;;;;9.20;4.65;;;;;;;17.75;51.32;100764.03;5103015;28;20032;-31
2022/05/09 08:15:48;;;;;;;34.13;22.48;;;;;;;17.66;51.59;100771.72;5090150;28;20028;-32
2022/05/09 08:18:15;;;;;;;8.27;5.43;;;;;;;17.73;50.62;100776.94;5090110;28;20028;-34
2022/05/09 08:20:45;;;;;;;7.88;4.45;;;;;;;17.87;51.70;100753.16;5088121;28;20036;-37
2022/05/09 08:23:12;;;;;;;6.95;4.10;;;;;;;17.95;49.94;100752.72;5088458;28;20116;-34
2022/05/09 08:25:39;;;;;;;7.35;3.92;;;;;;;18.23;49.70;100767.09;5088867;28;20606;-29
2022/05/09 08:28:07;;;;;;;8.70;3.75;;;;;;;18.20;49.95;100764.88;5105943;28;20805;-29
2022/05/09 08:30:35;;;;;;;6.90;3.70;;;;;;;18.43;49.62;100767.31;5105600;28;20526;-31
2022/05/09 08:33:02;;;;;;;7.20;3.38;;;;;;;18.22;49.84;100741.94;5105698;28;20465;-32
2022/05/09 08:35:28;;;;;;;6.80;3.95;;;;;;;18.19;48.15;100757.88;5088247;28;20028;-36
2022/05/09 08:37:54;;;;;;;6.38;3.90;;;;;;;18.59;50.54;100756.66;5089857;28;20039;-30
2022/05/09 08:40:30;;;;;;;7.07;3.85;;;;;;;18.84;48.48;100770.44;5110237;28;20051;-30
2022/05/09 08:43:20;;;;;;;7.43;4.05;;;;;;;18.01;49.82;100751.72;5108810;28;20463;-30
2022/05/09 08:46:01;;;;;;;8.73;4.47;;;;;;;18.12;50.75;100760.72;5091459;28;20050;-33
2022/05/09 08:48:42;;;;;;;11.80;5.10;;;;;;;18.58;49.09;100760.44;5109923;28;20059;-33
2022/05/09 08:51:29;;;;;;;6.30;3.78;;;;;;;18.96;48.80;100756.78;5108544;28;20039;-32
2022/05/09 08:53:59;;;;;;;6.75;3.42;;;;;;;19.06;46.30;100758.72;5108607;28;20031;-29
2022/05/09 08:56:26;;;;;;;7.28;3.95;;;;;;;19.44;47.28;100760.34;5091221;28;20031;-29
2022/05/09 08:58:59;;;;;;;9.13;4.32;;;;;;;19.74;46.46;100768.94;5091202;28;20531;-32
2022/05/09 09:01:44;;;;;;;7.22;3.33;;;;;;;20.04;46.48;100760.13;5109958;28;20471;-30
2022/05/09 09:04:23;;;;;;;7.72;4.32;;;;;;;20.32;44.16;100766.19;5108201;28;20483;-38
2022/05/09 09:07:15;;;;;;;5.50;3.35;;;;;;;20.86;41.68;100758.44;5091343;28;20441;-31
2022/05/09 09:09:56;;;;;;;5.22;2.85;;;;;;;20.39;43.41;100764.03;5108223;28;20020;-30
2022/05/09 09:12:27;;;;;;;8.48;3.30;;;;;;;19.52;46.00;100750.94;5108110;28;20126;-31
2022/05/09 09:15:24;;;;;;;5.93;3.08;;;;;;;20.09;44.48;100756.66;5108297;28;20099;-29
2022/05/09 09:17:53;;;;;;;5.35;3.05;;;;;;;20.76;41.86;100747.59;5108113;28;20070;-30
2022/05/09 09:20:35;;;;;;;8.35;3.47;;;;;;;20.77;42.64;100743.00;5109542;28;20477;-31
2022/05/09 09:23:29;;;;;;;6.93;3.78;;;;;;;21.09;41.96;100741.91;5091070;28;20031;-31
2022/05/09 09:26:12;;;;;;;5.10;2.50;;;;;;;21.10;41.82;100747.03;5109498;28;20057;-29
2022/05/09 09:29:04;;;;;;;4.10;2.47;;;;;;;20.62;41.67;100743.78;5107898;28;20149;-29
2022/05/09 09:31:43;;;;;;;5.53;2.78;;;;;;;21.08;42.85;100741.06;5090442;28;20032;-38
2022/05/09 09:34:35;;;;;;;4.38;2.58;;;;;;;21.11;41.07;100735.13;5090751;28;20131;-31
2022/05/09 09:37:24;;;;;;;4.82;2.25;;;;;;;21.70;41.95;100724.69;5107644;28;20035;-29
2022/05/09 09:39:50;;;;;;;5.55;2.70;;;;;;;22.05;42.18;100721.84;5107645;28;20090;-29
2022/05/09 09:42:15;;;;;;;6.60;2.97;;;;;;;22.04;40.92;100744.63;5109020;28;20102;-29
2022/05/09 09:44:45;;;;;;;4.43;2.35;;;;;;;22.08;40.51;100736.75;5109062;28;20027;-29
2022/05/09 09:47:20;;;;;;;4.88;2.40;;;;;;;21.75;41.49;100735.53;5090867;28;20457;-30
2022/05/09 09:50:06;;;;;;;5.65;2.28;;;;;;;21.76;41.67;100723.59;5108787;28;20061;-29
2022/05/09 09:52:42;;;;;;;3.90;2.57;;;;;;;21.73;42.98;100738.53;5090411;28;20064;-29
2022/05/09 09:55:20;;;;;;;5.10;2.63;;;;;;;21.65;43.16;100714.66;5109200;28;20031;-32
2022/05/09 09:57:46;;;;;;;5.90;2.67;;;;;;;22.08;43.37;100717.72;5090228;28;20423;-31
2022/05/09 10:00:34;;;;;;;5.03;2.40;;;;;;;22.03;42.25;100732.16;5090328;28;20078;-32
2022/05/09 10:03:21;;;;;;;6.18;2.40;;;;;;;22.38;41.56;100735.00;5108439;28;20028;-35
2022/05/09 10:05:50;;;;;;;6.55;2.67;;;;;;;22.76;40.24;100716.22;5090051;28;20028;-31
2022/05/09 10:08:37;;;;;;;5.90;2.40;;;;;;;23.12;40.48;100705.88;5090189;28;20125;-29
2022/05/09 10:11:11;;;;;;;4.43;2.30;;;;;;;23.19;38.51;100721.84;5089775;28;20030;-31
2022/05/09 10:13:41;;;;;;;4.75;2.25;;;;;;;23.26;38.84;100714.97;5106613;28;20695;-29
2022/05/09 10:16:23;;;;;;;8.88;2.60;;;;;;;23.21;40.15;100698.72;5106956;28;20652;-29
2022/05/09 10:18:50;;;;;;;5.25;2.33;;;;;;;23.78;39.61;100711.69;5089798;28;20024;-32
2022/05/09 10:27:21;;;;;;;5.82;2.30;;;;;;;23.09;38.01;100711.91;5108547;28;20086;-29
2022/05/09 10:29:49;;;;;;;5.45;2.17;;;;;;;23.34;38.07;100702.66;5107782;28;20031;-34
2022/05/09 10:32:23;;;;;;;7.22;2.40;;;;;;;24.00;38.45;100713.88;5089337;28;20027;-31
2022/05/09 10:35:05;;;;;;;4.03;2.30;;;;;;;23.82;37.34;100704.56;5108288;28;20023;-30
2022/05/09 10:37:40;;;;;;;4.35;2.78;;;;;;;23.67;38.22;100700.91;5105859;28;20518;-32
2022/05/09 10:40:14;;;;;;;5.43;2.15;;;;;;;24.21;37.62;100698.03;5103107;28;20052;-29
2022/05/09 10:42:44;;;;;;;4.07;2.20;;;;;;;23.72;37.19;100697.31;5087546;28;20028;-35
2022/05/09 10:45:26;;;;;;;3.92;2.30;;;;;;;23.46;39.01;100694.88;5103046;28;20032;-30
2022/05/09 10:48:15;;;;;;;6.20;2.50;;;;;;;23.96;38.98;100691.84;5102708;28;20032;-33
2022/05/09 10:51:02;;;;;;;3.70;2.40;;;;;;;25.01;35.11;100699.78;5087389;28;20035;-36
2022/05/09 10:53:48;;;;;;;;;;;;;;;24.81;39.68;100695.47;5103210;28;20077;-31
2022/05/09 10:56:21;;;;;;;4.88;2.55;;;;;;;24.82;37.66;100680.72;5102890;28;20053;-30
2022/05/09 10:59:01;;;;;;;4.47;2.78;;;;;;;24.93;38.00;100680.53;5085891;28;20257;-34
2022/05/09 11:01:44;;;;;;;4.57;2.28;;;;;;;24.70;37.33;100688.56;5102417;28;20034;-31
2022/05/09 11:04:12;;;;;;;4.15;2.13;;;;;;;23.95;38.42;100668.44;5102957;28;20389;-32
2022/05/09 11:06:46;;;;;;;5.32;2.47;;;;;;;24.47;37.11;100684.81;5102755;28;20035;-29
2022/05/09 11:09:56;;;;;;;4.90;2.13;;;;;;;25.05;36.09;100681.69;5087128;28;20028;-30
2022/05/09 11:12:34;;;;;;;4.38;2.25;;;;;;;25.64;36.22;100673.75;5024149;28;20029;-36
2022/05/09 11:14:59;;;;;;;5.20;2.42;;;;;;;25.79;36.62;100686.25;5078888;28;20057;-34
2022/05/09 11:17:51;;;;;;;5.40;2.20;;;;;;;25.50;35.69;100685.78;5087202;28;20028;-29
2022/05/09 11:20:28;;;;;;;3.70;2.00;;;;;;;25.50;35.47;100680.31;5086674;28;20051;-33
2022/05/09 11:23:20;;;;;;;3.97;2.00;;;;;;;25.83;36.05;100681.81;5102813;28;20032;-31
2022/05/09 11:25:55;;;;;;;7.07;2.15;;;;;;;25.96;35.08;100680.19;5102401;28;20032;-31
2022/05/09 11:28:44;;;;;;;4.60;2.08;;;;;;;26.16;36.29;100665.25;5102161;28;20070;-32
2022/05/09 11:31:48;;;;;;;4.53;1.92;;;;;;;25.95;36.34;100672.28;5102597;28;20127;-29
2022/05/09 11:34:38;;;;;;;4.05;2.03;;;;;;;25.97;35.96;100670.88;5086793;28;20035;-29
2022/05/09 11:37:20;;;;;;;4.70;2.00;;;;;;;26.36;34.14;100668.63;5086524;28;20120;-30
2022/05/09 11:40:02;;;;;;;4.95;2.28;;;;;;;26.16;34.51;100669.91;5102014;28;20060;-32
2022/05/09 11:45:18;;;;;;;5.10;2.30;;;;;;;26.43;34.82;100671.72;5086705;28;20105;-33
2022/05/09 11:47:58;;;;;;;5.15;1.80;;;;;;;26.05;35.62;100661.94;5086658;28;20020;-29
2022/05/09 11:50:36;;;;;;;3.17;1.70;;;;;;;26.50;32.86;100661.16;5106644;28;20113;-29
2022/05/09 11:53:05;;;;;;;3.47;1.77;;;;;;;26.58;31.32;100656.88;5106444;28;20560;-32
2022/05/09 11:55:30;;;;;;;4.43;2.10;;;;;;;27.00;32.86;100630.06;5105945;28;20032;-31